Aérodrome :
LOGIN :

S'inscrire | Disclaimer

   EN    FR    IT 

 










Légende :    VFR   VFR Marginal   IFR   IFR Intensif   IFR Très Intensif
Visi : 
Plafond : 
>= 8 km
>= 3000ft
5 à 8 km
1000 à 3000 ft
1500m à 5 km
500 à 1000 ft
800 à 1500m
200 à 500 ft
< 800m
< 200 ft
Symboles :   Orages  Brouillard  Fortes neiges  Fortes précipitations  Vent > 20 kt
SIGMETs :   Divers  Orages  Givrage  Turbulence  Onde Orograph.  Cendres Volcan.






- Altitude de l'aérodrome : 396 ft


LFOZ - Orléans St Denis

DERNIER METAR :
  • 171600Z AUTO 26010KT 9999 FEW042 09/02 Q1022

METARs EXPIRÉS :
  • 171530Z AUTO 26009KT 9999 SCT039 SCT054 BKN064 10/03 Q1021
  • 171500Z AUTO 28011KT 9999 FEW039 SCT052 10/03 Q1021
  • 171430Z AUTO 29011KT 9999 SCT041 10/04 Q1021
  • 171400Z AUTO 28011KT 240V300 9999 SCT032 SCT040 BKN210 11/04 Q1020
  • 171330Z AUTO 27012KT 9999 FEW029 SCT035 BKN230 10/04 Q1020

TAF N/A



MET'MAP, la Météo Aéronautique d'un coup d'oeil ! - Copyright ORBIFLY Décembre 2007 - Disclaimer

ORBIFLY MET'MAP TEAM :

Programmation & Développement : Alexandra Zaïnal
Sur une idée originale de : Baudouin d'Aumeries
Assistance à la programmation : Marc-Olivier Méhu
Soutien technique & logistique : Manuel Goepfert

Contact : metmap@orbifly.com




SOURCES & CREDITS :

   NOAA